createdAt,value
2018-10-18T00:01:28.082Z,44.71
2018-10-18T00:03:56.872Z,44.55
2018-10-18T00:06:25.997Z,44.86
2018-10-18T00:08:55.022Z,44.23
2018-10-18T00:11:23.822Z,44.61
2018-10-18T00:13:53.059Z,44.68
2018-10-18T00:16:22.097Z,45.36
2018-10-18T00:18:50.783Z,45.90
2018-10-18T00:21:19.710Z,45.19
2018-10-18T00:23:48.586Z,45.90
2018-10-18T00:26:17.378Z,45.41
2018-10-18T00:28:46.755Z,47.27
2018-10-18T00:31:15.694Z,47.64
2018-10-18T00:33:44.549Z,47.25
2018-10-18T00:36:13.696Z,47.86
2018-10-18T00:38:42.643Z,47.41
2018-10-18T00:41:11.510Z,46.42
2018-10-18T00:43:40.606Z,46.64
2018-10-18T00:46:09.686Z,46.45
2018-10-18T00:48:38.280Z,46.45
2018-10-18T00:51:07.352Z,47.26
2018-10-18T00:53:36.019Z,47.61
2018-10-18T00:56:05.018Z,48.74
2018-10-18T00:58:34.139Z,48.43
2018-10-18T01:01:03.253Z,48.36
2018-10-18T01:03:31.955Z,48.34
2018-10-18T01:06:01.193Z,48.63
2018-10-18T01:08:29.942Z,49.55
2018-10-18T01:10:58.827Z,49.02
2018-10-18T01:13:27.867Z,48.87
2018-10-18T01:15:56.739Z,48.36
2018-10-18T01:18:25.461Z,48.77
2018-10-18T01:20:54.510Z,48.91
2018-10-18T01:23:23.404Z,49.70
2018-10-18T01:25:52.300Z,50.58
2018-10-18T01:28:21.578Z,50.33
2018-10-18T01:30:50.457Z,49.68
2018-10-18T01:33:19.306Z,49.62
2018-10-18T01:35:48.575Z,49.80
2018-10-18T01:38:17.455Z,50.17
2018-10-18T01:40:46.588Z,50.07
2018-10-18T01:43:15.725Z,50.82
2018-10-18T01:45:44.652Z,52.38
2018-10-18T01:48:13.647Z,52.05
2018-10-18T01:50:42.322Z,51.83
2018-10-18T01:53:11.173Z,51.55
2018-10-18T01:55:40.230Z,51.77
2018-10-18T01:58:09.323Z,51.48
2018-10-18T02:00:38.486Z,51.27
2018-10-18T02:03:07.435Z,51.74
2018-10-18T02:05:36.502Z,51.78
2018-10-18T02:08:05.617Z,51.82
2018-10-18T02:10:34.599Z,52.11
2018-10-18T02:13:03.388Z,52.25
2018-10-18T02:15:32.305Z,52.27
2018-10-18T02:18:01.016Z,52.55
2018-10-18T02:20:29.656Z,52.28
2018-10-18T02:22:59.078Z,52.95
2018-10-18T02:25:28.054Z,53.11
2018-10-18T02:27:57.137Z,53.60
2018-10-18T02:30:26.186Z,53.71
2018-10-18T02:32:55.107Z,53.81
2018-10-18T02:35:24.345Z,53.74
2018-10-18T02:37:53.543Z,54.08
2018-10-18T02:40:22.511Z,54.14
2018-10-18T02:42:51.182Z,54.52
2018-10-18T02:45:20.345Z,55.13
2018-10-18T02:47:48.965Z,57.69
2018-10-18T02:50:17.696Z,57.60
2018-10-18T02:52:47.298Z,56.86
2018-10-18T02:55:16.079Z,57.56
2018-10-18T02:57:45.002Z,56.90
2018-10-18T03:00:14.453Z,58.24
2018-10-18T03:02:43.146Z,59.38
2018-10-18T03:05:11.958Z,60.54
2018-10-18T03:07:41.061Z,60.38
2018-10-18T03:10:10.036Z,61.62
2018-10-18T03:12:38.841Z,61.52
2018-10-18T03:15:08.448Z,61.85
2018-10-18T03:17:37.206Z,61.54
2018-10-18T03:20:06.115Z,62.40
2018-10-18T03:22:35.448Z,63.52
2018-10-18T03:25:04.365Z,64.20
2018-10-18T03:27:33.396Z,63.29
2018-10-18T03:30:02.477Z,63.27
2018-10-18T03:32:31.504Z,63.67
2018-10-18T03:35:00.504Z,64.12
2018-10-18T03:37:29.638Z,63.99
2018-10-18T03:39:58.693Z,62.81
2018-10-18T03:42:27.770Z,63.56
2018-10-18T03:44:56.747Z,63.88
2018-10-18T03:47:25.444Z,62.73
2018-10-18T03:49:54.457Z,63.94
2018-10-18T03:52:23.398Z,64.08
2018-10-18T03:54:52.514Z,65.25
2018-10-18T03:57:21.547Z,65.85
2018-10-18T03:59:50.727Z,66.42
2018-10-18T04:02:19.407Z,65.65
2018-10-18T04:04:48.316Z,65.46
2018-10-18T04:07:17.597Z,63.93
2018-10-18T04:09:46.506Z,64.06
2018-10-18T04:12:15.309Z,65.62
2018-10-18T04:14:44.131Z,65.98
2018-10-18T04:17:13.301Z,66.18
2018-10-18T04:19:42.339Z,65.75
2018-10-18T04:22:11.413Z,66.06
2018-10-18T04:24:40.969Z,66.22
2018-10-18T04:27:09.918Z,65.00
2018-10-18T04:29:39.218Z,64.04
2018-10-18T04:32:08.090Z,64.32
2018-10-18T04:34:37.057Z,64.58
2018-10-18T04:37:06.392Z,65.65
2018-10-18T04:39:35.435Z,65.22
2018-10-18T04:42:04.219Z,66.44
2018-10-18T04:44:33.092Z,66.46
2018-10-18T04:47:01.886Z,66.27
2018-10-18T04:49:31.276Z,65.32
2018-10-18T04:52:00.432Z,64.73
2018-10-18T04:54:29.553Z,64.76
2018-10-18T04:56:58.656Z,63.77
2018-10-18T04:59:27.453Z,64.62
2018-10-18T05:01:56.412Z,66.22
2018-10-18T05:04:25.262Z,66.99
2018-10-18T05:06:54.345Z,67.94
2018-10-18T05:09:23.278Z,68.27
2018-10-18T05:11:51.999Z,68.13
2018-10-18T05:14:21.687Z,67.97
2018-10-18T05:16:50.694Z,67.28
2018-10-18T05:19:19.518Z,66.69
2018-10-18T05:21:48.362Z,66.40
2018-10-18T05:24:17.779Z,66.45
2018-10-18T05:26:46.966Z,66.15
2018-10-18T05:29:15.649Z,66.09
2018-10-18T05:31:44.693Z,66.61
2018-10-18T05:34:13.743Z,65.86
2018-10-18T05:36:42.650Z,65.92
2018-10-18T05:39:12.942Z,66.73
2018-10-18T05:41:41.748Z,66.42
2018-10-18T05:44:10.375Z,67.03
2018-10-18T05:46:39.182Z,66.51
2018-10-18T05:49:08.294Z,65.86
2018-10-18T05:51:37.097Z,66.26
2018-10-18T05:54:06.078Z,65.73
2018-10-18T05:56:35.300Z,65.31
2018-10-18T05:59:04.375Z,65.15
2018-10-18T06:01:33.634Z,65.35
2018-10-18T06:04:02.919Z,64.89
2018-10-18T06:06:32.216Z,64.56
2018-10-18T06:09:01.396Z,63.74
2018-10-18T06:11:32.187Z,63.05
2018-10-18T06:14:01.113Z,62.43
2018-10-18T06:16:30.191Z,61.87
2018-10-18T06:18:59.450Z,61.19
2018-10-18T06:21:28.638Z,60.85
2018-10-18T06:23:57.830Z,59.77
2018-10-18T06:26:27.583Z,58.82
2018-10-18T06:28:56.954Z,57.05
2018-10-18T06:31:26.239Z,56.83
2018-10-18T06:33:55.187Z,54.73
2018-10-18T06:36:24.389Z,52.98
2018-10-18T06:38:53.275Z,52.78
2018-10-18T06:41:22.430Z,52.60
2018-10-18T06:43:51.407Z,51.68
2018-10-18T06:46:20.219Z,52.07
2018-10-18T06:48:49.106Z,51.11
2018-10-18T06:51:18.570Z,49.93
2018-10-18T06:53:47.971Z,49.57
2018-10-18T06:56:16.961Z,49.44
2018-10-18T06:58:46.126Z,48.58
2018-10-18T07:01:16.319Z,48.27
2018-10-18T07:03:45.780Z,47.92
2018-10-18T07:06:14.930Z,47.39
2018-10-18T07:08:44.311Z,47.00
2018-10-18T07:11:13.539Z,46.61
2018-10-18T07:13:42.730Z,46.83
2018-10-18T07:16:12.166Z,46.13
2018-10-18T07:18:41.370Z,45.97
2018-10-18T07:21:10.284Z,45.34
2018-10-18T07:23:40.678Z,45.68
2018-10-18T07:26:09.842Z,45.26
2018-10-18T07:28:38.950Z,45.12
2018-10-18T07:31:08.067Z,44.89
2018-10-18T07:33:36.995Z,44.74
2018-10-18T07:36:05.986Z,44.49
2018-10-18T07:38:34.966Z,44.94
2018-10-18T07:41:04.346Z,44.36
2018-10-18T07:43:33.515Z,43.79
2018-10-18T07:46:02.931Z,44.11
2018-10-18T07:48:32.231Z,42.99
2018-10-18T07:51:01.376Z,42.68
2018-10-18T07:53:30.743Z,42.58
2018-10-18T07:56:00.020Z,42.40
2018-10-18T07:58:29.478Z,41.95
2018-10-18T08:00:58.292Z,41.07
2018-10-18T08:03:27.220Z,40.68
2018-10-18T08:05:56.683Z,40.39
2018-10-18T08:08:25.804Z,40.07
2018-10-18T08:10:54.983Z,40.18
2018-10-18T08:13:23.983Z,39.51
2018-10-18T08:18:55.966Z,37.91
2018-10-18T08:21:24.801Z,38.56
2018-10-18T08:23:53.897Z,39.13
2018-10-18T08:26:22.868Z,38.95
2018-10-18T08:28:52.063Z,38.34
2018-10-18T08:31:21.059Z,37.02
2018-10-18T08:33:49.797Z,36.93
2018-10-18T08:36:18.795Z,37.26
2018-10-18T08:38:47.651Z,37.69
2018-10-18T08:41:16.486Z,37.67
2018-10-18T08:43:45.765Z,37.28
2018-10-18T08:46:14.867Z,37.47
2018-10-18T08:48:43.774Z,36.61
2018-10-18T08:51:12.678Z,35.90
2018-10-18T08:53:41.562Z,35.36
2018-10-18T08:56:10.570Z,35.54
2018-10-18T08:58:39.741Z,35.63
2018-10-18T09:01:09.395Z,34.65
2018-10-18T09:03:38.332Z,34.53
2018-10-18T09:06:07.459Z,33.88
2018-10-18T09:08:36.836Z,34.56
2018-10-18T09:11:06.041Z,34.23
2018-10-18T09:13:34.891Z,34.00
2018-10-18T09:16:03.912Z,32.37
2018-10-18T09:18:32.831Z,32.67
2018-10-18T09:21:01.744Z,31.42
2018-10-18T09:23:30.993Z,31.28
2018-10-18T09:26:00.023Z,30.74
2018-10-18T09:28:28.978Z,30.59
2018-10-18T09:30:58.249Z,30.80
2018-10-18T09:33:27.077Z,29.83
2018-10-18T09:35:55.879Z,29.49
2018-10-18T09:38:24.655Z,28.56
2018-10-18T09:40:53.363Z,29.33
2018-10-18T09:43:22.663Z,27.85
2018-10-18T09:45:51.633Z,26.81
2018-10-18T09:48:20.833Z,26.33
2018-10-18T09:50:50.122Z,25.60
2018-10-18T09:53:19.337Z,24.36
2018-10-18T09:55:48.456Z,25.14
2018-10-18T09:58:17.697Z,24.53
2018-10-18T10:00:52.014Z,24.47
2018-10-18T10:03:21.353Z,24.21
2018-10-18T10:05:50.486Z,23.68
2018-10-18T10:08:19.359Z,23.92
2018-10-18T10:10:48.155Z,23.78
2018-10-18T10:13:17.347Z,22.84
2018-10-18T10:15:46.152Z,23.24
2018-10-18T10:18:15.066Z,22.22
2018-10-18T10:20:44.206Z,22.50
2018-10-18T10:23:13.326Z,21.77
2018-10-18T10:25:42.495Z,22.66
2018-10-18T10:28:11.616Z,22.22
2018-10-18T10:30:40.887Z,21.97
2018-10-18T10:33:10.198Z,22.98
2018-10-18T10:35:39.366Z,22.82
2018-10-18T10:38:08.502Z,22.68
2018-10-18T10:40:37.851Z,23.67
2018-10-18T10:43:06.811Z,23.21
2018-10-18T10:45:35.719Z,23.12
2018-10-18T10:48:04.672Z,23.14
2018-10-18T10:50:33.660Z,23.76
2018-10-18T10:53:02.918Z,23.32
2018-10-18T10:55:31.959Z,23.39
2018-10-18T10:58:01.101Z,22.06
2018-10-18T11:01:33.358Z,22.69
2018-10-18T11:04:02.536Z,22.72
2018-10-18T11:06:31.862Z,23.24
2018-10-18T11:09:01.039Z,21.98
2018-10-18T11:11:30.155Z,22.22
2018-10-18T11:13:59.085Z,21.77
2018-10-18T11:16:27.868Z,21.30
2018-10-18T11:18:56.907Z,20.91
2018-10-18T11:21:26.144Z,21.64
2018-10-18T11:23:55.219Z,20.81
2018-10-18T11:26:24.436Z,21.18
2018-10-18T11:28:53.674Z,20.93
2018-10-18T11:31:23.036Z,20.78
2018-10-18T11:33:52.171Z,20.95
2018-10-18T11:36:21.223Z,20.34
2018-10-18T11:38:50.467Z,20.76
2018-10-18T11:41:19.734Z,19.84
2018-10-18T11:43:48.621Z,21.45
2018-10-18T11:46:17.586Z,21.24
2018-10-18T11:48:46.961Z,20.93
2018-10-18T11:51:16.022Z,20.21
2018-10-18T11:53:45.110Z,21.78
2018-10-18T11:56:14.312Z,22.40
2018-10-18T11:58:43.270Z,20.85
2018-10-18T12:01:12.388Z,20.74
2018-10-18T12:03:41.707Z,20.82
2018-10-18T12:06:10.655Z,20.51
2018-10-18T12:08:39.619Z,20.42
2018-10-18T12:11:08.575Z,20.57
2018-10-18T12:13:37.466Z,20.38
2018-10-18T12:16:06.641Z,21.27
2018-10-18T12:18:35.795Z,20.78
2018-10-18T12:21:05.116Z,20.49
2018-10-18T12:23:34.298Z,19.99
2018-10-18T12:26:03.442Z,20.40
2018-10-18T12:28:32.612Z,19.89
2018-10-18T12:31:01.942Z,20.13
2018-10-18T12:33:31.054Z,19.60
2018-10-18T12:36:00.147Z,19.88
2018-10-18T12:38:29.394Z,18.81
2018-10-18T12:40:58.376Z,19.04
2018-10-18T12:43:27.134Z,19.77
2018-10-18T12:45:55.977Z,19.68
2018-10-18T12:48:25.207Z,20.84
2018-10-18T12:50:54.314Z,21.04
2018-10-18T12:53:23.465Z,20.39
2018-10-18T12:55:52.636Z,20.11
2018-10-18T12:58:21.650Z,20.20
2018-10-18T13:00:50.615Z,20.69
2018-10-18T13:03:20.032Z,20.63
2018-10-18T13:05:49.038Z,20.08
2018-10-18T13:08:18.259Z,20.15
2018-10-18T13:10:47.077Z,21.30
2018-10-18T13:13:17.623Z,21.24
2018-10-18T13:15:46.707Z,21.41
2018-10-18T13:18:15.620Z,21.30
2018-10-18T13:20:44.638Z,21.17
2018-10-18T13:23:13.773Z,20.85
2018-10-18T13:25:43.055Z,21.09
2018-10-18T13:28:12.314Z,20.80
2018-10-18T13:30:41.467Z,20.25
2018-10-18T13:33:10.589Z,20.28
2018-10-18T13:35:39.714Z,20.58
2018-10-18T13:38:09.060Z,20.16
2018-10-18T13:40:38.128Z,20.62
2018-10-18T13:43:07.416Z,20.33
2018-10-18T13:45:39.125Z,20.95
2018-10-18T13:48:08.135Z,19.84
2018-10-18T13:50:36.906Z,19.91
2018-10-18T13:53:06.133Z,20.25
2018-10-18T13:55:35.238Z,20.14
2018-10-18T13:58:04.386Z,19.53
2018-10-18T14:00:33.559Z,19.98
2018-10-18T14:03:02.582Z,19.43
2018-10-18T14:05:31.843Z,19.17
2018-10-18T14:08:01.113Z,19.65
2018-10-18T14:10:30.398Z,19.34
2018-10-18T14:12:59.480Z,19.17
2018-10-18T14:15:28.342Z,19.90
2018-10-18T14:17:57.330Z,19.43
2018-10-18T14:20:26.469Z,20.30
2018-10-18T14:22:55.482Z,19.85
2018-10-18T14:25:24.783Z,19.75
2018-10-18T14:27:54.047Z,20.21
2018-10-18T14:30:23.335Z,20.72
2018-10-18T14:32:52.578Z,21.03
2018-10-18T14:35:22.083Z,21.02
2018-10-18T14:37:51.218Z,21.28
2018-10-18T14:40:20.347Z,21.80
2018-10-18T14:42:49.616Z,22.08
2018-10-18T14:45:18.493Z,21.84
2018-10-18T14:47:47.555Z,22.56
2018-10-18T14:50:16.871Z,22.65
2018-10-18T14:52:45.786Z,23.46
2018-10-18T14:55:14.891Z,24.21
2018-10-18T14:57:44.090Z,23.86
2018-10-18T15:00:14.092Z,24.65
2018-10-18T15:02:43.401Z,24.82
2018-10-18T15:05:13.428Z,24.98
2018-10-18T15:07:42.867Z,26.21
2018-10-18T15:10:13.964Z,25.88
2018-10-18T15:12:44.091Z,26.36
2018-10-18T15:15:14.382Z,26.75
2018-10-18T15:17:43.791Z,27.23
2018-10-18T15:20:13.267Z,27.13
2018-10-18T15:22:43.065Z,28.32
2018-10-18T15:25:13.123Z,30.20
2018-10-18T15:27:42.946Z,30.85
2018-10-18T15:30:12.752Z,31.04
2018-10-18T15:32:42.015Z,31.94
2018-10-18T15:35:12.313Z,32.40
2018-10-18T15:37:41.748Z,33.12
2018-10-18T15:40:11.142Z,33.36
2018-10-18T15:42:40.388Z,33.55
2018-10-18T15:45:10.238Z,34.06
2018-10-18T15:47:39.689Z,33.77
2018-10-18T15:50:10.362Z,34.66
2018-10-18T15:52:39.779Z,35.26
2018-10-18T15:55:09.615Z,35.65
2018-10-18T15:57:38.926Z,35.91
2018-10-18T16:00:09.420Z,36.48
2018-10-18T16:02:38.302Z,36.88
2018-10-18T16:05:07.344Z,37.62
2018-10-18T16:07:36.152Z,38.24
2018-10-18T16:10:05.420Z,38.76
2018-10-18T16:12:34.394Z,38.70
2018-10-18T16:15:03.504Z,38.95
2018-10-18T16:17:32.569Z,39.26
2018-10-18T16:20:01.834Z,39.80
2018-10-18T16:22:30.936Z,39.83
2018-10-18T16:25:00.070Z,40.38
2018-10-18T16:27:29.188Z,40.18
2018-10-18T16:29:58.282Z,40.05
2018-10-18T16:32:27.335Z,40.48
2018-10-18T16:34:56.465Z,40.31
2018-10-18T16:37:25.494Z,40.46
2018-10-18T16:39:54.823Z,40.66
2018-10-18T16:42:23.654Z,40.36
2018-10-18T16:44:52.738Z,40.61
2018-10-18T16:47:21.701Z,40.30
2018-10-18T16:49:50.957Z,40.20
2018-10-18T16:52:20.067Z,40.33
2018-10-18T16:54:49.591Z,39.90
2018-10-18T16:57:18.914Z,39.49
2018-10-18T16:59:48.051Z,39.38
2018-10-18T17:02:17.436Z,39.07
2018-10-18T17:04:46.658Z,38.69
2018-10-18T17:07:15.884Z,38.35
2018-10-18T17:09:44.962Z,38.34
2018-10-18T17:12:14.820Z,38.18
2018-10-18T17:14:43.652Z,38.23
2018-10-18T17:17:12.944Z,38.30
2018-10-18T17:19:42.032Z,38.16
2018-10-18T17:22:11.122Z,37.71
2018-10-18T17:24:40.240Z,37.68
2018-10-18T17:27:09.693Z,37.70
2018-10-18T17:29:38.778Z,37.80
2018-10-18T17:32:07.994Z,37.96
2018-10-18T17:34:37.031Z,38.04
2018-10-18T17:37:06.366Z,38.61
2018-10-18T17:39:35.516Z,38.42
2018-10-18T17:42:04.566Z,38.32
2018-10-18T17:44:33.519Z,38.51
2018-10-18T17:47:02.459Z,38.59
2018-10-18T17:49:31.628Z,38.65
2018-10-18T17:52:00.889Z,38.48
2018-10-18T17:54:30.214Z,38.45
2018-10-18T17:56:59.514Z,38.74
2018-10-18T17:59:28.918Z,38.60
2018-10-18T18:01:58.088Z,38.69
2018-10-18T18:04:26.929Z,39.13
2018-10-18T18:06:56.400Z,38.95
2018-10-18T18:09:25.288Z,38.77
2018-10-18T18:11:54.056Z,38.88
2018-10-18T18:14:22.949Z,39.24
2018-10-18T18:16:52.149Z,39.18
2018-10-18T18:19:21.242Z,39.54
2018-10-18T18:21:50.631Z,39.71
2018-10-18T18:24:19.742Z,39.86
2018-10-18T18:26:48.887Z,40.03
2018-10-18T18:29:17.849Z,40.00
2018-10-18T18:31:46.703Z,39.88
2018-10-18T18:34:15.646Z,40.61
2018-10-18T18:36:44.757Z,40.22
2018-10-18T18:39:16.745Z,40.63
2018-10-18T18:41:45.576Z,40.64
2018-10-18T18:44:14.277Z,40.69
2018-10-18T18:46:43.465Z,41.02
2018-10-18T18:49:12.528Z,41.10
2018-10-18T18:51:41.486Z,41.75
2018-10-18T18:54:10.211Z,41.97
2018-10-18T18:56:39.388Z,41.81
2018-10-18T18:59:08.391Z,41.97
2018-10-18T19:01:37.287Z,42.77
2018-10-18T19:04:06.654Z,42.76
2018-10-18T19:06:35.576Z,43.23
2018-10-18T19:09:05.990Z,43.85
2018-10-18T19:11:34.733Z,44.03
2018-10-18T19:14:04.104Z,44.88
2018-10-18T19:16:32.442Z,44.42
2018-10-18T19:19:01.675Z,44.60
2018-10-18T19:21:30.563Z,44.81
2018-10-18T19:23:59.477Z,44.96
2018-10-18T19:26:28.302Z,45.40
2018-10-18T19:28:57.308Z,45.40
2018-10-18T19:31:26.041Z,45.78
2018-10-18T19:33:54.988Z,45.94
2018-10-18T19:36:23.972Z,46.39
2018-10-18T19:38:52.810Z,45.99
2018-10-18T19:41:21.530Z,46.49
2018-10-18T19:43:50.290Z,47.16
2018-10-18T19:46:19.231Z,47.14
2018-10-18T19:48:48.352Z,47.48
2018-10-18T19:51:17.309Z,47.70
2018-10-18T19:53:46.187Z,47.80
2018-10-18T19:56:15.166Z,47.96
2018-10-18T19:58:43.820Z,47.70
2018-10-18T20:01:13.117Z,48.69
2018-10-18T20:03:42.094Z,48.64
2018-10-18T20:06:11.050Z,49.28
2018-10-18T20:08:39.989Z,49.28
2018-10-18T20:11:08.709Z,49.67
2018-10-18T20:13:37.441Z,49.33
2018-10-18T20:16:06.620Z,49.58
2018-10-18T20:18:35.492Z,49.61
2018-10-18T20:21:04.454Z,49.56
2018-10-18T20:23:33.398Z,49.95
2018-10-18T20:26:02.478Z,49.78
2018-10-18T20:28:31.392Z,50.61
2018-10-18T20:31:00.246Z,50.91
2018-10-18T20:33:29.119Z,51.60
2018-10-18T20:35:57.886Z,52.01
2018-10-18T20:38:26.533Z,52.58
2018-10-18T20:40:55.303Z,51.73
2018-10-18T20:43:24.010Z,52.43
2018-10-18T20:45:52.864Z,54.14
2018-10-18T20:48:21.848Z,54.89
2018-10-18T20:50:50.833Z,55.25
2018-10-18T20:53:19.706Z,54.33
2018-10-18T20:55:48.373Z,54.31
2018-10-18T20:58:17.336Z,54.49
2018-10-18T21:00:46.259Z,55.88
2018-10-18T21:03:15.194Z,56.65
2018-10-18T21:05:44.045Z,56.39
2018-10-18T21:08:12.859Z,57.11
2018-10-18T21:10:41.595Z,57.68
2018-10-18T21:13:10.508Z,58.06
2018-10-18T21:15:39.298Z,57.05
2018-10-18T21:18:08.187Z,57.33
2018-10-18T21:20:37.278Z,57.10
2018-10-18T21:23:06.684Z,57.39
2018-10-18T21:25:35.584Z,58.09
2018-10-18T21:28:04.517Z,58.43
2018-10-18T21:30:33.451Z,57.82
2018-10-18T21:33:02.718Z,57.29
2018-10-18T21:35:31.356Z,57.63
2018-10-18T21:38:00.489Z,57.08
2018-10-18T21:40:29.455Z,57.48
2018-10-18T21:42:58.591Z,56.79
2018-10-18T21:45:27.539Z,57.88
2018-10-18T21:47:56.843Z,57.65
2018-10-18T21:50:25.594Z,57.61
2018-10-18T21:52:54.535Z,57.09
2018-10-18T21:55:23.754Z,57.20
2018-10-18T21:57:52.551Z,57.92
2018-10-18T22:00:21.583Z,58.40
2018-10-18T22:02:50.645Z,59.39
2018-10-18T22:05:19.615Z,60.06
2018-10-18T22:07:48.298Z,60.68
2018-10-18T22:10:17.067Z,61.44
2018-10-18T22:12:45.926Z,61.24
2018-10-18T22:15:15.067Z,61.57
2018-10-18T22:17:43.854Z,62.27
2018-10-18T22:20:12.787Z,62.71
2018-10-18T22:22:41.797Z,62.67
2018-10-18T22:25:11.011Z,62.23
2018-10-18T22:27:39.926Z,62.90
2018-10-18T22:30:09.232Z,63.65
2018-10-18T22:32:38.130Z,64.35
2018-10-18T22:35:07.431Z,64.02
2018-10-18T22:37:36.163Z,64.20
2018-10-18T22:40:05.253Z,65.08
2018-10-18T22:42:34.386Z,66.05
2018-10-18T22:45:03.277Z,65.72
2018-10-18T22:47:32.213Z,66.30
2018-10-18T22:50:01.454Z,65.90
2018-10-18T22:52:30.321Z,65.88
2018-10-18T22:54:59.011Z,65.79
2018-10-18T22:57:28.060Z,65.81
2018-10-18T22:59:56.994Z,65.98
2018-10-18T23:02:25.616Z,67.12
2018-10-18T23:04:54.511Z,67.24
2018-10-18T23:07:23.246Z,66.68
2018-10-18T23:09:52.098Z,66.42
2018-10-18T23:12:20.939Z,66.28
2018-10-18T23:14:49.831Z,65.69
2018-10-18T23:17:19.056Z,64.90
2018-10-18T23:19:48.038Z,64.44
2018-10-18T23:22:17.143Z,65.05
2018-10-18T23:24:45.969Z,66.16
2018-10-18T23:27:13.867Z,67.04
2018-10-18T23:29:42.618Z,67.54
2018-10-18T23:32:11.448Z,68.06
2018-10-18T23:34:40.407Z,67.63
2018-10-18T23:37:09.121Z,67.28
2018-10-18T23:39:37.877Z,67.97
2018-10-18T23:42:06.879Z,68.33
2018-10-18T23:44:35.976Z,68.60
2018-10-18T23:47:05.057Z,68.75
2018-10-18T23:49:33.931Z,68.75
2018-10-18T23:52:02.782Z,69.03
2018-10-18T23:54:31.740Z,68.62
2018-10-18T23:57:00.640Z,67.59
2018-10-18T23:59:29.397Z,68.18
